createdAt,value
2024-02-19T00:00:06.666Z,9.03
2024-02-19T00:02:39.150Z,9.04
2024-02-19T00:05:07.238Z,9.04
2024-02-19T00:07:33.851Z,8.99
2024-02-19T00:10:00.789Z,8.97
2024-02-19T00:12:27.393Z,8.91
2024-02-19T00:14:54.009Z,8.95
2024-02-19T00:17:20.537Z,8.98
2024-02-19T00:19:47.129Z,8.97
2024-02-19T00:22:13.726Z,8.98
2024-02-19T00:24:40.564Z,9.00
2024-02-19T00:27:08.353Z,8.99
2024-02-19T00:29:34.974Z,9.00
2024-02-19T00:32:01.568Z,9.02
2024-02-19T00:34:28.171Z,9.02
2024-02-19T00:36:55.896Z,9.00
2024-02-19T00:39:22.439Z,8.96
2024-02-19T00:41:49.032Z,8.97
2024-02-19T00:44:15.615Z,8.95
2024-02-19T00:46:42.189Z,8.94
2024-02-19T00:49:08.870Z,8.94
2024-02-19T00:51:36.308Z,8.92
2024-02-19T00:54:02.945Z,8.93
2024-02-19T00:56:29.488Z,8.91
2024-02-19T00:58:56.068Z,8.88
2024-02-19T01:01:22.661Z,8.88
2024-02-19T01:03:49.334Z,8.89
2024-02-19T01:06:16.093Z,8.94
2024-02-19T01:08:43.437Z,8.95
2024-02-19T01:11:11.673Z,8.95
2024-02-19T01:13:39.038Z,8.92
2024-02-19T01:16:05.741Z,8.89
2024-02-19T01:18:32.341Z,8.92
2024-02-19T01:20:58.966Z,8.90
2024-02-19T01:23:25.586Z,8.87
2024-02-19T01:25:53.490Z,8.89
2024-02-19T01:28:21.198Z,8.90
2024-02-19T01:30:48.102Z,8.95
2024-02-19T01:33:14.912Z,8.97
2024-02-19T01:35:41.419Z,8.96
2024-02-19T01:38:08.863Z,8.91
2024-02-19T01:40:35.383Z,8.91
2024-02-19T01:43:06.657Z,8.96
2024-02-19T01:45:33.820Z,8.92
2024-02-19T01:48:01.484Z,8.93
2024-02-19T01:50:36.249Z,8.91
2024-02-19T01:53:06.007Z,8.86
2024-02-19T01:55:34.797Z,8.84
2024-02-19T01:58:02.306Z,8.80
2024-02-19T02:00:35.977Z,8.77
2024-02-19T02:03:04.158Z,8.77
2024-02-19T02:05:31.005Z,8.76
2024-02-19T02:07:58.490Z,8.77
2024-02-19T02:10:25.193Z,8.79
2024-02-19T02:12:51.810Z,8.83
2024-02-19T02:15:18.459Z,8.78
2024-02-19T02:17:45.528Z,8.80
2024-02-19T02:20:12.547Z,8.81
2024-02-19T02:22:39.872Z,8.82
2024-02-19T02:25:06.886Z,8.81
2024-02-19T02:27:33.571Z,8.80
2024-02-19T02:30:00.346Z,8.80
2024-02-19T02:32:26.905Z,8.76
2024-02-19T02:34:53.532Z,8.78
2024-02-19T02:37:21.845Z,8.82
2024-02-19T02:39:48.468Z,8.82
2024-02-19T02:42:14.973Z,8.80
2024-02-19T02:44:41.514Z,8.79
2024-02-19T02:47:08.018Z,8.79
2024-02-19T02:49:34.662Z,8.76
2024-02-19T02:52:01.306Z,8.77
2024-02-19T02:54:27.876Z,8.79
2024-02-19T02:56:54.388Z,8.82
2024-02-19T02:59:20.947Z,8.86
2024-02-19T03:01:47.642Z,8.89
2024-02-19T03:04:14.355Z,8.85
2024-02-19T03:06:41.062Z,8.86
2024-02-19T03:09:07.679Z,8.85
2024-02-19T03:11:34.239Z,8.83
2024-02-19T03:14:00.908Z,8.85
2024-02-19T03:16:27.522Z,8.88
2024-02-19T03:18:54.871Z,8.88
2024-02-19T03:21:22.026Z,8.90
2024-02-19T03:23:53.139Z,8.94
2024-02-19T03:26:37.411Z,8.95
2024-02-19T03:29:15.456Z,8.96
2024-02-19T03:31:43.805Z,8.95
2024-02-19T03:34:11.140Z,8.96
2024-02-19T03:36:38.140Z,8.96
2024-02-19T03:39:05.801Z,8.97
2024-02-19T03:41:33.193Z,8.97
2024-02-19T03:44:00.080Z,8.95
2024-02-19T03:46:27.134Z,8.94
2024-02-19T03:48:56.404Z,8.95
2024-02-19T03:51:23.487Z,8.93
2024-02-19T03:53:50.160Z,8.94
2024-02-19T03:56:16.813Z,8.96
2024-02-19T03:58:43.413Z,8.94
2024-02-19T04:01:10.168Z,8.93
2024-02-19T04:03:36.980Z,8.93
2024-02-19T04:06:03.804Z,8.93
2024-02-19T04:08:33.080Z,8.96
2024-02-19T04:10:59.654Z,8.94
2024-02-19T04:13:26.220Z,8.90
2024-02-19T04:15:52.809Z,8.89
2024-02-19T04:18:19.543Z,8.89
2024-02-19T04:20:46.136Z,8.90
2024-02-19T04:23:12.748Z,8.91
2024-02-19T04:25:39.338Z,8.91
2024-02-19T04:28:06.364Z,8.87
2024-02-19T04:30:32.902Z,8.89
2024-02-19T04:32:59.939Z,8.89
2024-02-19T04:35:26.539Z,8.90
2024-02-19T04:37:53.148Z,8.90
2024-02-19T04:40:19.775Z,8.91
2024-02-19T04:42:46.414Z,8.94
2024-02-19T04:45:12.990Z,8.87
2024-02-19T04:47:39.536Z,8.85
2024-02-19T04:50:06.841Z,8.88
2024-02-19T04:52:33.589Z,8.90
2024-02-19T04:55:00.298Z,8.90
2024-02-19T04:57:26.953Z,8.91
2024-02-19T04:59:53.469Z,8.94
2024-02-19T05:02:20.027Z,8.99
2024-02-19T05:04:46.818Z,9.00
2024-02-19T05:07:13.575Z,9.02
2024-02-19T05:09:40.786Z,9.04
2024-02-19T05:12:07.469Z,9.05
2024-02-19T05:14:34.004Z,9.05
2024-02-19T05:17:01.676Z,9.02
2024-02-19T05:19:28.847Z,9.02
2024-02-19T05:21:55.890Z,9.01
2024-02-19T05:24:22.533Z,8.99
2024-02-19T05:26:49.325Z,8.98
2024-02-19T05:29:15.871Z,9.00
2024-02-19T05:31:42.959Z,9.01
2024-02-19T05:34:09.779Z,9.05
2024-02-19T05:36:36.569Z,9.06
2024-02-19T05:39:03.848Z,9.06
2024-02-19T05:41:30.361Z,9.06
2024-02-19T05:43:57.319Z,9.07
2024-02-19T05:46:24.285Z,9.06
2024-02-19T05:48:51.946Z,9.09
2024-02-19T05:51:18.840Z,9.11
2024-02-19T05:53:45.487Z,9.09
2024-02-19T05:56:12.028Z,9.10
2024-02-19T05:58:41.891Z,9.11
2024-02-19T06:01:09.034Z,9.09
2024-02-19T06:03:36.277Z,9.10
2024-02-19T06:06:04.298Z,9.11
2024-02-19T06:08:31.327Z,9.13
2024-02-19T06:10:58.770Z,9.11
2024-02-19T06:13:26.197Z,9.10
2024-02-19T06:15:53.301Z,9.08
2024-02-19T06:18:20.611Z,9.08
2024-02-19T06:20:48.669Z,9.09
2024-02-19T06:23:15.881Z,9.05
2024-02-19T06:25:45.635Z,9.07
2024-02-19T06:28:12.433Z,9.09
2024-02-19T06:30:39.638Z,9.09
2024-02-19T06:33:06.735Z,9.08
2024-02-19T06:35:33.494Z,9.06
2024-02-19T06:38:00.158Z,9.07
2024-02-19T06:40:27.863Z,9.06
2024-02-19T06:42:55.519Z,9.05
2024-02-19T06:45:22.603Z,9.07
2024-02-19T06:47:49.289Z,9.08
2024-02-19T06:50:15.946Z,9.09
2024-02-19T06:52:46.908Z,9.09
2024-02-19T06:55:15.486Z,9.10
2024-02-19T06:57:42.453Z,9.11
2024-02-19T07:00:13.119Z,9.09
2024-02-19T07:02:40.333Z,9.08
2024-02-19T07:05:08.427Z,9.10
2024-02-19T07:07:36.420Z,9.10
2024-02-19T07:10:05.270Z,9.11
2024-02-19T07:12:34.826Z,9.11
2024-02-19T07:15:01.523Z,9.11
2024-02-19T07:17:30.478Z,9.12
2024-02-19T07:19:57.176Z,9.16
2024-02-19T07:22:23.952Z,9.18
2024-02-19T07:24:53.246Z,9.17
2024-02-19T07:27:23.496Z,9.19
2024-02-19T07:29:51.497Z,9.19
2024-02-19T07:32:18.068Z,9.20
2024-02-19T07:34:44.777Z,9.20
2024-02-19T07:37:11.470Z,9.22
2024-02-19T07:39:42.707Z,9.23
2024-02-19T07:42:10.128Z,9.24
2024-02-19T07:44:36.690Z,9.29
2024-02-19T07:47:04.345Z,9.30
2024-02-19T07:49:31.403Z,9.27
2024-02-19T07:51:58.248Z,9.28
2024-02-19T07:54:24.786Z,9.33
2024-02-19T07:56:51.346Z,9.36
2024-02-19T07:59:17.972Z,9.38
2024-02-19T08:01:44.638Z,9.36
2024-02-19T08:04:11.354Z,9.37
2024-02-19T08:06:38.089Z,9.39
2024-02-19T08:09:06.977Z,9.42
2024-02-19T08:11:33.658Z,9.43
2024-02-19T08:14:00.302Z,9.41
2024-02-19T08:16:28.693Z,9.39
2024-02-19T08:18:55.871Z,9.38
2024-02-19T08:21:22.503Z,9.32
2024-02-19T08:23:49.087Z,9.35
2024-02-19T08:26:15.708Z,9.34
2024-02-19T08:28:42.300Z,9.32
2024-02-19T08:31:08.889Z,9.34
2024-02-19T08:33:35.564Z,9.35
2024-02-19T08:36:02.628Z,9.34
2024-02-19T08:38:29.652Z,9.36
2024-02-19T08:40:56.307Z,9.38
2024-02-19T08:43:22.934Z,9.37
2024-02-19T08:45:49.850Z,9.41
2024-02-19T08:48:16.615Z,9.40
2024-02-19T08:50:44.593Z,9.41
2024-02-19T08:53:11.134Z,9.34
2024-02-19T08:55:37.713Z,9.36
2024-02-19T08:58:04.566Z,9.32
2024-02-19T09:00:33.809Z,9.35
2024-02-19T09:03:00.808Z,9.35
2024-02-19T09:05:28.313Z,9.29
2024-02-19T09:07:55.038Z,9.31
2024-02-19T09:10:21.876Z,9.37
2024-02-19T09:12:48.439Z,9.41
2024-02-19T09:15:15.096Z,9.45
2024-02-19T09:17:41.724Z,9.42
2024-02-19T09:20:08.818Z,9.48
2024-02-19T09:22:35.603Z,9.50
2024-02-19T09:25:02.210Z,9.43
2024-02-19T09:27:28.785Z,9.46
2024-02-19T09:29:57.357Z,9.48
2024-02-19T09:32:24.160Z,9.53
2024-02-19T09:34:51.070Z,9.47
2024-02-19T09:37:17.720Z,9.43
2024-02-19T09:39:50.708Z,9.45
2024-02-19T09:42:17.933Z,9.49
2024-02-19T09:44:44.789Z,9.52
2024-02-19T09:47:16.404Z,9.50
2024-02-19T09:49:43.844Z,9.47
2024-02-19T09:52:12.942Z,9.46
2024-02-19T09:54:39.602Z,9.42
2024-02-19T09:57:11.649Z,9.33
2024-02-19T09:59:41.717Z,9.37
2024-02-19T10:02:08.452Z,9.45
2024-02-19T10:04:36.489Z,9.53
2024-02-19T10:07:03.467Z,9.56
2024-02-19T10:09:30.654Z,9.60
2024-02-19T10:12:01.213Z,9.66
2024-02-19T10:14:27.949Z,9.69
2024-02-19T10:16:56.326Z,9.71
2024-02-19T10:19:23.207Z,9.78
2024-02-19T10:21:51.542Z,9.84
2024-02-19T10:24:18.766Z,9.81
2024-02-19T10:26:51.266Z,9.83
2024-02-19T10:29:19.517Z,9.80
2024-02-19T10:31:46.141Z,9.82
2024-02-19T10:34:15.845Z,9.85
2024-02-19T10:36:45.521Z,9.87
2024-02-19T10:39:12.371Z,9.94
2024-02-19T10:41:40.080Z,9.98
2024-02-19T10:44:07.394Z,10.04
2024-02-19T10:46:34.669Z,10.00
2024-02-19T10:49:01.521Z,10.02
2024-02-19T10:51:30.183Z,10.05
2024-02-19T10:54:05.292Z,10.11
2024-02-19T10:56:44.459Z,10.15
2024-02-19T10:59:12.534Z,10.21
2024-02-19T11:01:42.530Z,10.24
2024-02-19T11:04:19.208Z,10.22
2024-02-19T11:06:57.492Z,10.26
2024-02-19T11:09:35.075Z,10.32
2024-02-19T11:12:03.546Z,10.25
2024-02-19T11:14:33.493Z,10.19
2024-02-19T11:17:01.963Z,10.10
2024-02-19T11:19:30.143Z,10.10
2024-02-19T11:22:11.197Z,10.11
2024-02-19T11:24:40.379Z,10.04
2024-02-19T11:27:11.400Z,10.04
2024-02-19T11:29:46.771Z,10.08
2024-02-19T11:32:20.727Z,10.01
2024-02-19T11:34:49.033Z,9.99
2024-02-19T11:37:15.811Z,10.02
2024-02-19T11:39:44.547Z,10.00
2024-02-19T11:42:15.997Z,10.11
2024-02-19T11:44:44.516Z,10.17
2024-02-19T11:47:11.578Z,10.27
2024-02-19T11:49:38.637Z,10.27
2024-02-19T11:52:11.774Z,10.24
2024-02-19T11:54:39.979Z,10.19
2024-02-19T11:57:09.526Z,10.15
2024-02-19T11:59:38.974Z,10.11
2024-02-19T12:02:10.228Z,10.08
2024-02-19T12:04:38.441Z,10.05
2024-02-19T12:07:06.127Z,9.99
2024-02-19T12:09:33.086Z,9.96
2024-02-19T12:11:59.886Z,10.02
2024-02-19T12:14:26.692Z,9.94
2024-02-19T12:16:55.446Z,9.93
2024-02-19T12:19:22.363Z,9.95
2024-02-19T12:21:49.843Z,9.94
2024-02-19T12:24:16.363Z,9.91
2024-02-19T12:26:45.537Z,9.82
2024-02-19T12:29:13.659Z,9.79
2024-02-19T12:31:40.361Z,9.79
2024-02-19T12:34:07.741Z,9.84
2024-02-19T12:36:34.811Z,9.87
2024-02-19T12:39:02.424Z,9.82
2024-02-19T12:41:29.209Z,9.79
2024-02-19T12:43:57.184Z,9.73
2024-02-19T12:46:25.430Z,9.75
2024-02-19T12:48:52.376Z,9.79
2024-02-19T12:51:19.291Z,9.84
2024-02-19T12:53:46.038Z,9.82
2024-02-19T12:56:12.694Z,9.69
2024-02-19T12:58:39.292Z,9.70
2024-02-19T13:01:13.257Z,9.68
2024-02-19T13:03:47.127Z,9.65
2024-02-19T13:06:15.973Z,9.66
2024-02-19T13:08:45.417Z,9.64
2024-02-19T13:11:12.653Z,9.62
2024-02-19T13:13:40.014Z,9.60
2024-02-19T13:16:09.399Z,9.63
2024-02-19T13:18:37.336Z,9.55
2024-02-19T13:21:04.889Z,9.52
2024-02-19T13:23:31.565Z,9.46
2024-02-19T13:25:58.181Z,9.47
2024-02-19T13:28:24.874Z,9.46
2024-02-19T13:30:51.529Z,9.45
2024-02-19T13:33:19.400Z,9.46
2024-02-19T13:35:46.100Z,9.45
2024-02-19T13:38:13.573Z,9.48
2024-02-19T13:40:40.278Z,9.56
2024-02-19T13:43:07.023Z,9.61
2024-02-19T13:45:54.337Z,9.57
2024-02-19T13:48:25.178Z,9.61
2024-02-19T13:50:59.552Z,9.64
2024-02-19T13:53:28.851Z,9.68
2024-02-19T13:55:57.818Z,9.66
2024-02-19T13:58:26.470Z,9.68
2024-02-19T14:00:55.381Z,9.71
2024-02-19T14:03:22.716Z,9.64
2024-02-19T14:05:49.895Z,9.63
2024-02-19T14:08:18.877Z,9.68
2024-02-19T14:10:48.166Z,9.68
2024-02-19T14:13:16.338Z,9.58
2024-02-19T14:15:42.909Z,9.60
2024-02-19T14:18:09.530Z,9.59
2024-02-19T14:20:36.121Z,9.62
2024-02-19T14:23:03.581Z,9.65
2024-02-19T14:25:33.997Z,9.64
2024-02-19T14:28:01.912Z,9.63
2024-02-19T14:30:28.727Z,9.63
2024-02-19T14:32:55.504Z,9.62
2024-02-19T14:35:22.348Z,9.62
2024-02-19T14:37:49.367Z,9.65
2024-02-19T14:40:19.147Z,9.68
2024-02-19T14:42:46.801Z,9.66
2024-02-19T14:45:14.214Z,9.69
2024-02-19T14:47:46.893Z,9.64
2024-02-19T14:50:14.655Z,9.64
2024-02-19T14:52:41.946Z,9.64
2024-02-19T14:55:12.195Z,9.65
2024-02-19T14:57:40.728Z,9.66
2024-02-19T15:00:11.284Z,9.64
2024-02-19T15:02:42.152Z,9.65
2024-02-19T15:05:09.754Z,9.81
2024-02-19T15:07:36.865Z,9.95
2024-02-19T15:10:04.783Z,9.89
2024-02-19T15:12:31.623Z,9.79
2024-02-19T15:14:58.788Z,9.72
2024-02-19T15:17:26.913Z,9.65
2024-02-19T15:19:54.110Z,9.65
2024-02-19T15:22:20.960Z,9.67
2024-02-19T15:24:47.724Z,9.61
2024-02-19T15:27:14.443Z,9.60
2024-02-19T15:29:41.005Z,9.57
2024-02-19T15:32:08.865Z,9.56
2024-02-19T15:34:35.584Z,9.55
2024-02-19T15:37:02.318Z,9.54
2024-02-19T15:39:30.917Z,9.50
2024-02-19T15:41:57.515Z,9.47
2024-02-19T15:44:24.609Z,9.43
2024-02-19T15:46:51.160Z,9.41
2024-02-19T15:49:17.829Z,9.40
2024-02-19T15:51:44.526Z,9.41
2024-02-19T15:54:11.677Z,9.41
2024-02-19T15:56:38.491Z,9.41
2024-02-19T15:59:05.077Z,9.41
2024-02-19T16:01:31.701Z,9.39
2024-02-19T16:03:58.455Z,9.36
2024-02-19T16:06:29.319Z,9.36
2024-02-19T16:08:57.481Z,9.33
2024-02-19T16:11:24.276Z,9.24
2024-02-19T16:13:51.842Z,9.21
2024-02-19T16:16:19.667Z,9.25
2024-02-19T16:18:47.093Z,9.28
2024-02-19T16:21:14.395Z,9.28
2024-02-19T16:23:42.414Z,9.26
2024-02-19T16:26:10.853Z,9.25
2024-02-19T16:28:41.862Z,9.20
2024-02-19T16:31:11.696Z,9.12
2024-02-19T16:33:40.109Z,8.99
2024-02-19T16:36:09.148Z,8.94
2024-02-19T16:38:38.705Z,8.98
2024-02-19T16:41:06.931Z,8.98
2024-02-19T16:43:36.656Z,8.92
2024-02-19T16:46:04.354Z,8.90
2024-02-19T16:48:37.995Z,8.89
2024-02-19T16:51:13.761Z,8.90
2024-02-19T16:53:41.814Z,8.85
2024-02-19T16:56:10.648Z,8.85
2024-02-19T16:58:37.319Z,8.82
2024-02-19T17:01:06.203Z,8.92
2024-02-19T17:03:33.318Z,8.94
2024-02-19T17:06:00.228Z,8.97
2024-02-19T17:08:28.007Z,8.91
2024-02-19T17:10:56.365Z,8.96
2024-02-19T17:13:23.389Z,8.91
2024-02-19T17:15:50.444Z,8.90
2024-02-19T17:18:18.004Z,8.88
2024-02-19T17:20:44.853Z,8.94
2024-02-19T17:23:17.140Z,8.91
2024-02-19T17:25:43.934Z,8.86
2024-02-19T17:28:10.624Z,8.75
2024-02-19T17:30:37.638Z,8.71
2024-02-19T17:33:04.577Z,8.78
2024-02-19T17:35:31.513Z,8.72
2024-02-19T17:37:58.234Z,8.73
2024-02-19T17:40:24.983Z,8.79
2024-02-19T17:42:52.139Z,8.76
2024-02-19T17:45:18.905Z,8.74
2024-02-19T17:47:49.174Z,8.77
2024-02-19T17:50:16.070Z,8.79
2024-02-19T17:52:45.790Z,8.77
2024-02-19T17:55:12.647Z,8.80
2024-02-19T17:57:40.176Z,8.79
2024-02-19T18:00:10.096Z,8.76
2024-02-19T18:02:39.554Z,8.72
2024-02-19T18:05:06.586Z,8.73
2024-02-19T18:07:33.179Z,8.71
2024-02-19T18:09:59.830Z,8.64
2024-02-19T18:12:26.404Z,8.64
2024-02-19T18:14:53.008Z,8.63
2024-02-19T18:17:20.619Z,8.65
2024-02-19T18:19:48.767Z,8.66
2024-02-19T18:22:15.432Z,8.65
2024-02-19T18:24:41.997Z,8.61
2024-02-19T18:27:09.521Z,8.61
2024-02-19T18:29:36.711Z,8.61
2024-02-19T18:32:03.892Z,8.63
2024-02-19T18:34:35.430Z,8.64
2024-02-19T18:37:03.158Z,8.60
2024-02-19T18:39:32.638Z,8.59
2024-02-19T18:41:59.515Z,8.57
2024-02-19T18:44:26.148Z,8.48
2024-02-19T18:46:52.661Z,8.50
2024-02-19T18:49:21.664Z,8.51
2024-02-19T18:51:49.452Z,8.51
2024-02-19T18:54:18.886Z,8.55
2024-02-19T18:56:46.073Z,8.57
2024-02-19T18:59:12.585Z,8.54
2024-02-19T19:01:39.616Z,8.59
2024-02-19T19:04:06.379Z,8.60
2024-02-19T19:06:33.289Z,8.58
2024-02-19T19:09:06.302Z,8.60
2024-02-19T19:11:35.315Z,8.60
2024-02-19T19:14:02.472Z,8.58
2024-02-19T19:16:29.634Z,8.58
2024-02-19T19:18:58.137Z,8.56
2024-02-19T19:21:24.907Z,8.60
2024-02-19T19:23:51.512Z,8.60
2024-02-19T19:26:18.165Z,8.62
2024-02-19T19:28:44.755Z,8.55
2024-02-19T19:31:11.391Z,8.54
2024-02-19T19:33:38.162Z,8.51
2024-02-19T19:36:05.546Z,8.46
2024-02-19T19:38:32.145Z,8.48
2024-02-19T19:40:58.741Z,8.45
2024-02-19T19:43:25.384Z,8.39
2024-02-19T19:45:54.265Z,8.45
2024-02-19T19:48:28.918Z,8.50
2024-02-19T19:50:57.010Z,8.52
2024-02-19T19:53:24.290Z,8.45
2024-02-19T19:55:57.719Z,8.44
2024-02-19T19:58:31.982Z,8.42
2024-02-19T20:01:00.514Z,8.44
2024-02-19T20:03:27.365Z,8.45
2024-02-19T20:05:54.380Z,8.50
2024-02-19T20:08:21.227Z,8.52
2024-02-19T20:10:48.285Z,8.48
2024-02-19T20:13:15.194Z,8.45
2024-02-19T20:15:41.998Z,8.49
2024-02-19T20:18:09.667Z,8.54
2024-02-19T20:20:36.555Z,8.49
2024-02-19T20:23:03.357Z,8.47
2024-02-19T20:25:30.876Z,8.49
2024-02-19T20:27:57.508Z,8.51
2024-02-19T20:30:24.163Z,8.42
2024-02-19T20:32:52.591Z,8.41
2024-02-19T20:35:19.593Z,8.42
2024-02-19T20:37:46.134Z,8.42
2024-02-19T20:40:13.494Z,8.45
2024-02-19T20:42:40.269Z,8.48
2024-02-19T20:45:07.296Z,8.45
2024-02-19T20:47:33.915Z,8.47
2024-02-19T20:50:01.091Z,8.45
2024-02-19T20:52:28.267Z,8.49
2024-02-19T20:54:56.171Z,8.51
2024-02-19T20:57:25.859Z,8.53
2024-02-19T20:59:53.365Z,8.55
2024-02-19T21:02:20.112Z,8.55
2024-02-19T21:04:46.845Z,8.54
2024-02-19T21:07:13.557Z,8.52
2024-02-19T21:09:41.641Z,8.48
2024-02-19T21:12:08.317Z,8.47
2024-02-19T21:14:35.713Z,8.45
2024-02-19T21:17:03.872Z,8.44
2024-02-19T21:19:31.985Z,8.42
2024-02-19T21:21:58.939Z,8.43
2024-02-19T21:24:25.626Z,8.41
2024-02-19T21:26:52.208Z,8.41
2024-02-19T21:29:18.932Z,8.40
2024-02-19T21:31:45.428Z,8.39
2024-02-19T21:34:13.233Z,8.39
2024-02-19T21:36:40.098Z,8.34
2024-02-19T21:39:06.987Z,8.33
2024-02-19T21:41:34.925Z,8.32
2024-02-19T21:44:01.669Z,8.32
2024-02-19T21:46:28.406Z,8.30
2024-02-19T21:48:56.394Z,8.29
2024-02-19T21:51:23.613Z,8.27
2024-02-19T21:53:50.208Z,8.27
2024-02-19T21:56:16.827Z,8.25
2024-02-19T21:58:43.347Z,8.24
2024-02-19T22:01:10.037Z,8.23
2024-02-19T22:03:36.744Z,8.21
2024-02-19T22:06:05.157Z,8.17
2024-02-19T22:08:31.868Z,8.13
2024-02-19T22:10:58.433Z,8.12
2024-02-19T22:13:25.136Z,8.11
2024-02-19T22:15:55.083Z,8.11
2024-02-19T22:18:23.289Z,8.13
2024-02-19T22:20:49.940Z,8.14
2024-02-19T22:23:16.617Z,8.13
2024-02-19T22:25:43.227Z,8.11
2024-02-19T22:28:09.833Z,8.08
2024-02-19T22:30:36.408Z,8.07
2024-02-19T22:33:03.088Z,8.04
2024-02-19T22:35:30.026Z,8.02
2024-02-19T22:37:56.606Z,7.98
2024-02-19T22:40:23.329Z,7.97
2024-02-19T22:42:49.932Z,7.95
2024-02-19T22:45:16.494Z,7.98
2024-02-19T22:47:43.121Z,7.96
2024-02-19T22:50:09.764Z,7.98
2024-02-19T22:52:37.203Z,7.99
2024-02-19T22:55:07.272Z,7.98
2024-02-19T22:57:33.852Z,7.97
2024-02-19T23:00:00.783Z,7.96
2024-02-19T23:02:27.358Z,7.95
2024-02-19T23:04:54.061Z,7.96
2024-02-19T23:07:20.662Z,7.97
2024-02-19T23:09:47.240Z,7.98
2024-02-19T23:12:14.072Z,7.96
2024-02-19T23:14:40.634Z,7.95
2024-02-19T23:17:07.329Z,7.95
2024-02-19T23:19:33.931Z,7.93
2024-02-19T23:22:00.511Z,7.90
2024-02-19T23:24:27.168Z,7.90
2024-02-19T23:26:53.673Z,7.87
2024-02-19T23:29:20.433Z,7.85
2024-02-19T23:31:47.481Z,7.85
2024-02-19T23:34:14.365Z,7.84
2024-02-19T23:36:41.296Z,7.83
2024-02-19T23:39:08.007Z,7.81
2024-02-19T23:41:34.559Z,7.81
2024-02-19T23:44:01.122Z,7.79
2024-02-19T23:46:27.695Z,7.75
2024-02-19T23:48:56.477Z,7.73
2024-02-19T23:51:23.201Z,7.71
2024-02-19T23:53:49.866Z,7.70
2024-02-19T23:56:16.490Z,7.69
2024-02-19T23:58:43.190Z,7.68
